Time;durP1;ratioP1;P1;durP2;ratioP2;P2;SDS_P1;SDS_P2;PMS_P1;PMS_P2;Temp;Humidity;BMP_temperature;BMP_pressure;BME280_temperature;BME280_humidity;BME280_pressure;Samples;Min_cycle;Max_cycle;Signal;HPM_P1;HPM_P2
2023/07/22 00:02:14;;;;;;;5.90;2.60;;;;;;;;;;4951318;28;20445;-91
2023/07/22 00:04:40;;;;;;;5.43;3.70;;;;;;;;;;4966387;28;20476;-92
2023/07/22 00:07:06;;;;;;;3.10;2.60;;;;;;;;;;4951496;28;20441;-90
2023/07/22 00:09:35;;;;;;;5.30;2.00;;;;;;;;;;4947188;28;20441;-90
2023/07/22 00:12:01;;;;;;;3.23;1.90;;;;;;;;;;4947299;28;20631;-90
2023/07/22 00:14:27;;;;;;;3.53;2.30;;;;;;;;;;4944227;28;20414;-90
2023/07/22 00:16:55;;;;;;;4.77;2.33;;;;;;;;;;4950932;28;20405;-91
2023/07/22 00:19:21;;;;;;;2.30;2.03;;;;;;;;;;4946198;28;20826;-89
2023/07/22 00:21:47;;;;;;;3.70;2.60;;;;;;;;;;4956295;28;20514;-90
2023/07/22 00:24:13;;;;;;;4.03;2.17;;;;;;;;;;4962789;28;20461;-91
2023/07/22 00:26:39;;;;;;;4.37;2.00;;;;;;;;;;4952133;28;20460;-91
2023/07/22 00:29:05;;;;;;;5.63;2.30;;;;;;;;;;4938580;28;20460;-91
2023/07/22 00:31:31;;;;;;;3.70;2.17;;;;;;;;;;4946336;28;20430;-91
2023/07/22 00:33:57;;;;;;;5.60;2.23;;;;;;;;;;4948845;29;20454;-91
2023/07/22 00:36:24;;;;;;;3.87;3.10;;;;;;;;;;4951525;28;20425;-91
2023/07/22 00:38:49;;;;;;;4.30;2.20;;;;;;;;;;4948763;28;20418;-91
2023/07/22 00:41:15;;;;;;;3.40;2.30;;;;;;;;;;4949228;28;20461;-91
2023/07/22 00:43:41;;;;;;;2.90;2.13;;;;;;;;;;4959504;28;20470;-91
2023/07/22 00:46:07;;;;;;;2.40;1.73;;;;;;;;;;4948641;28;20939;-91
2023/07/22 00:48:33;;;;;;;4.60;1.73;;;;;;;;;;4950029;28;20422;-91
2023/07/22 00:50:59;;;;;;;2.60;1.97;;;;;;;;;;4948161;28;20449;-91
2023/07/22 00:53:25;;;;;;;4.60;2.53;;;;;;;;;;4951108;28;20450;-91
2023/07/22 00:55:51;;;;;;;2.17;1.80;;;;;;;;;;4944610;28;20436;-91
2023/07/22 00:58:17;;;;;;;3.20;2.20;;;;;;;;;;4949914;28;20470;-90
2023/07/22 01:00:43;;;;;;;4.77;2.77;;;;;;;;;;4964875;28;20414;-91
2023/07/22 01:03:10;;;;;;;2.73;2.03;;;;;;;;;;4953775;28;20461;-91
2023/07/22 01:05:36;;;;;;;4.23;2.40;;;;;;;;;;4967178;28;20438;-91
2023/07/22 01:08:03;;;;;;;3.70;2.40;;;;;;;;;;4963987;28;20529;-91
2023/07/22 01:10:29;;;;;;;2.60;2.20;;;;;;;;;;4949289;28;20425;-92
2023/07/22 01:12:56;;;;;;;3.30;2.17;;;;;;;;;;4940673;29;20809;-91
2023/07/22 01:15:22;;;;;;;2.70;2.17;;;;;;;;;;4947696;28;20434;-91
2023/07/22 01:17:48;;;;;;;3.80;2.57;;;;;;;;;;4949688;28;20473;-92
2023/07/22 01:20:14;;;;;;;4.27;3.07;;;;;;;;;;4935678;29;21079;-91
2023/07/22 01:22:40;;;;;;;4.53;2.60;;;;;;;;;;4939381;28;22383;-90
2023/07/22 01:25:07;;;;;;;3.17;2.50;;;;;;;;;;4949926;28;20910;-91
2023/07/22 01:27:33;;;;;;;3.03;2.23;;;;;;;;;;4965053;28;20441;-91
2023/07/22 01:29:59;;;;;;;4.20;3.13;;;;;;;;;;4948936;28;20426;-92
2023/07/22 01:32:25;;;;;;;4.47;2.70;;;;;;;;;;4955598;28;20431;-91
2023/07/22 01:34:51;;;;;;;2.80;2.40;;;;;;;;;;4949949;28;20952;-91
2023/07/22 01:37:17;;;;;;;5.43;3.37;;;;;;;;;;4948047;28;20425;-90
2023/07/22 01:39:43;;;;;;;3.20;2.37;;;;;;;;;;4949968;28;20498;-89
2023/07/22 01:42:09;;;;;;;2.73;2.33;;;;;;;;;;4946153;28;20431;-91
2023/07/22 01:44:35;;;;;;;3.80;2.53;;;;;;;;;;4965873;28;20468;-90
2023/07/22 01:47:04;;;;;;;3.10;2.70;;;;;;;;;;4960065;28;20421;-91
2023/07/22 01:49:30;;;;;;;2.77;2.10;;;;;;;;;;4966449;28;20429;-90
2023/07/22 01:51:56;;;;;;;3.37;2.43;;;;;;;;;;4962544;28;20461;-91
2023/07/22 01:54:22;;;;;;;3.33;2.77;;;;;;;;;;4949016;28;20422;-90
2023/07/22 01:56:48;;;;;;;6.20;2.73;;;;;;;;;;4950983;28;20464;-90
2023/07/22 01:59:14;;;;;;;27.40;3.80;;;;;;;;;;4946980;28;20522;-91
2023/07/22 02:01:40;;;;;;;3.63;2.30;;;;;;;;;;4949093;28;20420;-90
2023/07/22 02:04:06;;;;;;;2.80;2.20;;;;;;;;;;4962488;28;20540;-90
2023/07/22 02:06:32;;;;;;;3.80;2.60;;;;;;;;;;4949061;28;20434;-91
2023/07/22 02:08:58;;;;;;;6.80;2.60;;;;;;;;;;4948637;28;20426;-91
2023/07/22 02:11:24;;;;;;;3.83;3.53;;;;;;;;;;4947919;28;20407;-90
2023/07/22 02:13:50;;;;;;;4.30;2.77;;;;;;;;;;4960504;28;20486;-90
2023/07/22 02:16:16;;;;;;;4.30;2.53;;;;;;;;;;4951028;28;20445;-91
2023/07/22 02:18:42;;;;;;;3.90;2.83;;;;;;;;;;4964535;28;20428;-89
2023/07/22 02:21:08;;;;;;;2.50;2.30;;;;;;;;;;4950901;29;20423;-90
2023/07/22 02:23:34;;;;;;;3.13;2.60;;;;;;;;;;4947026;28;20465;-89
2023/07/22 02:26:01;;;;;;;3.13;2.37;;;;;;;;;;4965329;28;20581;-92
2023/07/22 02:28:27;;;;;;;3.27;2.53;;;;;;;;;;4944172;28;20430;-90
2023/07/22 02:30:53;;;;;;;3.30;2.40;;;;;;;;;;4956924;28;20512;-91
2023/07/22 02:33:20;;;;;;;3.00;2.60;;;;;;;;;;4957605;28;20449;-91
2023/07/22 02:35:46;;;;;;;2.30;2.00;;;;;;;;;;4947352;28;20776;-90
2023/07/22 02:38:12;;;;;;;5.10;2.23;;;;;;;;;;4961064;28;20465;-91
2023/07/22 02:40:38;;;;;;;3.47;2.90;;;;;;;;;;4943592;28;20505;-90
2023/07/22 02:43:05;;;;;;;3.20;2.40;;;;;;;;;;4949052;28;20909;-91
2023/07/22 02:45:31;;;;;;;2.90;2.43;;;;;;;;;;4947567;29;20427;-91
2023/07/22 02:47:57;;;;;;;4.10;2.30;;;;;;;;;;4945747;28;20414;-90
2023/07/22 02:50:23;;;;;;;3.67;2.80;;;;;;;;;;4942413;28;20465;-91
2023/07/22 02:52:50;;;;;;;2.60;2.13;;;;;;;;;;4946828;28;20438;-90
2023/07/22 02:55:18;;;;;;;3.30;2.37;;;;;;;;;;4947936;28;20441;-90
2023/07/22 02:57:44;;;;;;;3.97;2.53;;;;;;;;;;4937776;28;20446;-91
2023/07/22 03:00:12;;;;;;;5.77;2.47;;;;;;;;;;4964541;28;20418;-90
2023/07/22 03:02:38;;;;;;;3.07;2.63;;;;;;;;;;4947842;28;20430;-90
2023/07/22 03:05:07;;;;;;;4.10;3.17;;;;;;;;;;4950866;28;20789;-89
2023/07/22 03:07:33;;;;;;;7.57;2.70;;;;;;;;;;4914928;29;20467;-90
2023/07/22 03:10:00;;;;;;;3.30;2.47;;;;;;;;;;4915410;29;20419;-91
2023/07/22 03:12:27;;;;;;;2.70;2.30;;;;;;;;;;4901216;29;20907;-90
2023/07/22 03:14:53;;;;;;;3.03;2.73;;;;;;;;;;4914646;29;20491;-90
2023/07/22 03:17:19;;;;;;;3.27;2.53;;;;;;;;;;4932518;29;20430;-91
2023/07/22 03:19:45;;;;;;;3.53;2.40;;;;;;;;;;4926707;29;20451;-90
2023/07/22 03:22:11;;;;;;;3.23;2.80;;;;;;;;;;4931838;29;20435;-90
2023/07/22 03:24:37;;;;;;;3.37;2.50;;;;;;;;;;4948362;29;20474;-90
2023/07/22 03:27:03;;;;;;;3.10;2.50;;;;;;;;;;4926772;29;20498;-92
2023/07/22 03:29:29;;;;;;;3.30;3.00;;;;;;;;;;4900868;29;20433;-91
2023/07/22 03:31:57;;;;;;;4.10;2.83;;;;;;;;;;4924442;29;20664;-90
2023/07/22 03:34:23;;;;;;;4.27;2.70;;;;;;;;;;4914529;29;20422;-90
2023/07/22 03:36:49;;;;;;;3.70;3.13;;;;;;;;;;4956584;28;20502;-91
2023/07/22 03:39:15;;;;;;;3.50;2.27;;;;;;;;;;4962012;28;20421;-90
2023/07/22 03:41:41;;;;;;;2.80;2.27;;;;;;;;;;4970839;28;20418;-92
2023/07/22 03:44:07;;;;;;;3.23;2.07;;;;;;;;;;4964262;28;20548;-92
2023/07/22 03:46:34;;;;;;;4.37;2.60;;;;;;;;;;4962678;28;20426;-93
2023/07/22 03:49:00;;;;;;;3.37;2.37;;;;;;;;;;4968120;28;20804;-92
2023/07/22 03:51:26;;;;;;;4.83;2.13;;;;;;;;;;4941591;28;20429;-92
2023/07/22 03:53:53;;;;;;;2.70;2.27;;;;;;;;;;4960071;29;20430;-93
2023/07/22 03:56:19;;;;;;;3.67;2.57;;;;;;;;;;4957669;28;20469;-92
2023/07/22 03:58:45;;;;;;;3.60;2.67;;;;;;;;;;4958326;28;20434;-93
2023/07/22 04:01:11;;;;;;;4.73;2.50;;;;;;;;;;4952640;28;20892;-91
2023/07/22 04:03:37;;;;;;;2.53;1.97;;;;;;;;;;4947400;28;20461;-92
2023/07/22 04:06:03;;;;;;;3.50;2.70;;;;;;;;;;4955348;28;20506;-93
2023/07/22 04:08:29;;;;;;;7.30;2.90;;;;;;;;;;4953439;28;20458;-91
2023/07/22 04:10:56;;;;;;;3.50;2.73;;;;;;;;;;4968682;28;20422;-92
2023/07/22 04:13:22;;;;;;;3.27;2.40;;;;;;;;;;4949045;28;20886;-92
2023/07/22 04:15:48;;;;;;;3.10;2.37;;;;;;;;;;4966514;28;20956;-91
2023/07/22 04:18:17;;;;;;;4.20;2.70;;;;;;;;;;4954002;28;20438;-92
2023/07/22 04:20:44;;;;;;;3.17;2.53;;;;;;;;;;4951025;28;20465;-91
2023/07/22 04:23:10;;;;;;;4.30;3.03;;;;;;;;;;4950146;28;20470;-91
2023/07/22 04:25:39;;;;;;;3.73;2.80;;;;;;;;;;4967523;28;20437;-90
2023/07/22 04:28:05;;;;;;;3.10;2.47;;;;;;;;;;4950167;28;20402;-91
2023/07/22 04:30:31;;;;;;;4.77;2.50;;;;;;;;;;4952665;28;20457;-91
2023/07/22 04:32:57;;;;;;;5.60;2.30;;;;;;;;;;4951263;28;20426;-93
2023/07/22 04:35:24;;;;;;;3.00;2.60;;;;;;;;;;4952091;28;20970;-89
2023/07/22 04:37:50;;;;;;;4.97;2.60;;;;;;;;;;4951471;28;20414;-89
2023/07/22 04:40:17;;;;;;;3.27;2.50;;;;;;;;;;4950570;28;21133;-90
2023/07/22 04:42:44;;;;;;;3.53;2.80;;;;;;;;;;4949930;28;21083;-89
2023/07/22 04:45:10;;;;;;;3.27;2.30;;;;;;;;;;4940578;28;20446;-92
2023/07/22 04:47:37;;;;;;;3.67;2.50;;;;;;;;;;4947597;29;20438;-90
2023/07/22 04:50:04;;;;;;;3.97;2.40;;;;;;;;;;4969182;28;20422;-94
2023/07/22 04:52:30;;;;;;;3.17;2.17;;;;;;;;;;4948314;28;20426;-91
2023/07/22 04:54:56;;;;;;;2.57;1.87;;;;;;;;;;4965265;28;20423;-92
2023/07/22 04:57:22;;;;;;;4.80;3.63;;;;;;;;;;4959891;28;20461;-94
2023/07/22 04:59:48;;;;;;;4.53;2.80;;;;;;;;;;4967020;28;20843;-92
2023/07/22 05:02:14;;;;;;;4.97;2.23;;;;;;;;;;4964582;28;20429;-93
2023/07/22 05:04:40;;;;;;;3.37;2.73;;;;;;;;;;4967724;28;20493;-93
2023/07/22 05:07:06;;;;;;;5.63;2.00;;;;;;;;;;4966841;28;20598;-93
2023/07/22 05:09:33;;;;;;;3.50;2.60;;;;;;;;;;4980584;28;20454;-93
2023/07/22 05:11:59;;;;;;;2.70;2.20;;;;;;;;;;4971806;28;20427;-92
2023/07/22 05:14:26;;;;;;;3.00;2.00;;;;;;;;;;4961820;28;20436;-93
2023/07/22 05:16:52;;;;;;;4.77;2.57;;;;;;;;;;4967605;28;20853;-92
2023/07/22 05:19:20;;;;;;;2.40;1.53;;;;;;;;;;4968270;28;20445;-93
2023/07/22 05:21:46;;;;;;;4.40;2.27;;;;;;;;;;4973855;28;20427;-90
2023/07/22 05:24:12;;;;;;;3.27;2.13;;;;;;;;;;4966759;28;20472;-90
2023/07/22 05:26:38;;;;;;;3.77;2.57;;;;;;;;;;4954531;28;20426;-92
2023/07/22 05:29:04;;;;;;;2.97;2.37;;;;;;;;;;4950111;28;20430;-90
2023/07/22 05:31:30;;;;;;;4.10;2.30;;;;;;;;;;4947471;28;20520;-91
2023/07/22 05:33:57;;;;;;;2.87;2.10;;;;;;;;;;4959692;28;20430;-90
2023/07/22 05:36:23;;;;;;;2.83;2.10;;;;;;;;;;4957922;28;20442;-90
2023/07/22 05:38:49;;;;;;;2.27;1.77;;;;;;;;;;4970263;28;20426;-92
2023/07/22 05:41:15;;;;;;;3.67;2.07;;;;;;;;;;4946917;28;20430;-90
2023/07/22 05:43:42;;;;;;;4.37;2.30;;;;;;;;;;4933029;28;20529;-93
2023/07/22 05:46:10;;;;;;;3.70;2.10;;;;;;;;;;4966165;28;20417;-91
2023/07/22 05:48:36;;;;;;;3.27;2.30;;;;;;;;;;4961691;28;20442;-92
2023/07/22 05:51:02;;;;;;;6.63;2.40;;;;;;;;;;4952649;28;20542;-91
2023/07/22 05:53:28;;;;;;;3.07;2.30;;;;;;;;;;4951889;28;20956;-93
2023/07/22 05:55:55;;;;;;;3.47;2.07;;;;;;;;;;4952549;28;20422;-91
2023/07/22 05:58:21;;;;;;;2.97;2.30;;;;;;;;;;4943839;29;20418;-94
2023/07/22 06:00:47;;;;;;;2.77;1.90;;;;;;;;;;4953575;28;20411;-95
2023/07/22 06:03:13;;;;;;;4.13;1.80;;;;;;;;;;4947638;28;20481;-95
2023/07/22 06:05:39;;;;;;;2.80;1.97;;;;;;;;;;4948415;28;20426;-94
2023/07/22 06:08:05;;;;;;;2.77;1.80;;;;;;;;;;4950090;28;20426;-94
2023/07/22 06:10:31;;;;;;;7.90;2.10;;;;;;;;;;4949687;28;20884;-94
2023/07/22 06:12:58;;;;;;;3.00;2.10;;;;;;;;;;4977624;28;20941;-92
2023/07/22 06:15:24;;;;;;;2.33;1.93;;;;;;;;;;4965096;28;20433;-92
2023/07/22 06:17:49;;;;;;;3.70;2.30;;;;;;;;;;4952226;28;20424;-94
2023/07/22 06:20:16;;;;;;;5.10;1.90;;;;;;;;;;4953850;28;20458;-94
2023/07/22 06:22:42;;;;;;;3.30;2.63;;;;;;;;;;4951542;28;20797;-93
2023/07/22 06:25:08;;;;;;;2.70;2.23;;;;;;;;;;4950942;28;20440;-94
2023/07/22 06:27:35;;;;;;;2.60;2.03;;;;;;;;;;4914934;29;20582;-94
2023/07/22 06:30:01;;;;;;;2.73;1.87;;;;;;;;;;4902304;29;20477;-93
2023/07/22 06:32:29;;;;;;;4.57;2.50;;;;;;;;;;4910833;29;20433;-94
2023/07/22 06:34:56;;;;;;;3.87;2.40;;;;;;;;;;4884011;29;20426;-94
2023/07/22 06:37:22;;;;;;;3.90;2.57;;;;;;;;;;4881007;29;20469;-93
2023/07/22 06:39:48;;;;;;;3.70;2.83;;;;;;;;;;4894530;29;20461;-94
2023/07/22 06:42:14;;;;;;;4.50;2.30;;;;;;;;;;4897733;29;20477;-93
2023/07/22 06:44:40;;;;;;;3.57;1.97;;;;;;;;;;4908356;29;20464;-93
2023/07/22 06:47:06;;;;;;;3.67;2.20;;;;;;;;;;4893231;29;20429;-94
2023/07/22 06:49:32;;;;;;;5.60;2.57;;;;;;;;;;4892342;29;20485;-93
2023/07/22 06:52:01;;;;;;;3.57;2.57;;;;;;;;;;4911186;29;20932;-93
2023/07/22 06:54:29;;;;;;;2.70;1.97;;;;;;;;;;4901532;29;20449;-92
2023/07/22 06:56:55;;;;;;;2.97;2.43;;;;;;;;;;4893540;29;21198;-93
2023/07/22 06:59:21;;;;;;;3.40;2.27;;;;;;;;;;4917320;29;20448;-91
2023/07/22 07:01:47;;;;;;;2.83;1.90;;;;;;;;;;4940188;29;20462;-93
2023/07/22 07:04:14;;;;;;;4.67;2.30;;;;;;;;;;4950753;28;20473;-94
2023/07/22 07:06:40;;;;;;;2.80;2.03;;;;;;;;;;4956982;28;20466;-91
2023/07/22 07:09:06;;;;;;;3.00;2.17;;;;;;;;;;4952645;28;20434;-91
2023/07/22 07:11:32;;;;;;;3.40;1.80;;;;;;;;;;4948403;29;20456;-91
2023/07/22 07:13:58;;;;;;;3.17;1.80;;;;;;;;;;4956939;28;20461;-92
2023/07/22 07:16:25;;;;;;;2.43;2.10;;;;;;;;;;4949944;28;20461;-91
2023/07/22 07:18:51;;;;;;;2.37;1.53;;;;;;;;;;4948141;28;20530;-90
2023/07/22 07:21:18;;;;;;;3.03;2.20;;;;;;;;;;4948339;28;20430;-90
2023/07/22 07:23:44;;;;;;;3.10;1.73;;;;;;;;;;4948557;28;20848;-91
2023/07/22 07:26:10;;;;;;;4.17;1.70;;;;;;;;;;4952074;28;20418;-91
2023/07/22 07:28:36;;;;;;;3.30;2.13;;;;;;;;;;4949684;28;20442;-91
2023/07/22 07:31:02;;;;;;;2.63;1.50;;;;;;;;;;4952338;28;20469;-93
2023/07/22 07:33:28;;;;;;;5.77;2.13;;;;;;;;;;4950639;28;21011;-92
2023/07/22 07:35:54;;;;;;;6.93;1.57;;;;;;;;;;4949475;28;20442;-92
2023/07/22 07:38:20;;;;;;;3.77;2.07;;;;;;;;;;4947209;28;20476;-92
2023/07/22 07:40:46;;;;;;;3.40;1.83;;;;;;;;;;4951427;28;20423;-94
2023/07/22 07:43:12;;;;;;;2.80;2.10;;;;;;;;;;4948632;28;20462;-92
2023/07/22 07:45:38;;;;;;;5.67;2.30;;;;;;;;;;4950962;28;20445;-93
2023/07/22 07:48:05;;;;;;;3.40;2.20;;;;;;;;;;4949826;28;21004;-93
2023/07/22 07:50:31;;;;;;;5.00;2.47;;;;;;;;;;4951419;28;20449;-93
2023/07/22 07:52:59;;;;;;;3.80;2.10;;;;;;;;;;4919335;28;20494;-92
2023/07/22 07:55:25;;;;;;;2.73;2.00;;;;;;;;;;4955973;28;20465;-92
2023/07/22 07:57:51;;;;;;;5.20;1.87;;;;;;;;;;4953853;28;20906;-92
2023/07/22 08:00:17;;;;;;;3.07;2.27;;;;;;;;;;4955151;28;20433;-92
2023/07/22 08:02:43;;;;;;;3.70;1.90;;;;;;;;;;4951595;28;20452;-92
2023/07/22 08:05:12;;;;;;;2.90;2.10;;;;;;;;;;4953348;28;20433;-93
2023/07/22 08:07:38;;;;;;;2.10;1.57;;;;;;;;;;4953090;28;20418;-93
2023/07/22 08:10:05;;;;;;;2.73;1.80;;;;;;;;;;4951739;28;20418;-91
2023/07/22 08:12:31;;;;;;;3.30;2.17;;;;;;;;;;4966849;28;20454;-92
2023/07/22 08:14:57;;;;;;;4.43;2.30;;;;;;;;;;4956782;28;20418;-93
2023/07/22 08:17:23;;;;;;;2.70;1.90;;;;;;;;;;4952648;28;20429;-92
2023/07/22 08:19:49;;;;;;;3.67;1.93;;;;;;;;;;4968382;28;20490;-93
2023/07/22 08:22:15;;;;;;;2.43;1.60;;;;;;;;;;4950136;28;20418;-94
2023/07/22 08:24:41;;;;;;;4.30;1.73;;;;;;;;;;4947956;28;20470;-89
2023/07/22 08:27:07;;;;;;;4.33;1.80;;;;;;;;;;4949482;28;20528;-90
2023/07/22 08:29:34;;;;;;;3.80;2.00;;;;;;;;;;4950487;28;20955;-91
2023/07/22 08:32:00;;;;;;;2.87;1.73;;;;;;;;;;4949584;28;20521;-91
2023/07/22 08:34:26;;;;;;;4.20;2.00;;;;;;;;;;4951032;28;20454;-90
2023/07/22 08:36:52;;;;;;;2.33;1.50;;;;;;;;;;4952160;28;20435;-92
2023/07/22 08:39:18;;;;;;;5.27;1.93;;;;;;;;;;4950729;28;20453;-91
2023/07/22 08:41:46;;;;;;;3.00;2.00;;;;;;;;;;4949953;28;20422;-92
2023/07/22 08:44:12;;;;;;;2.60;1.50;;;;;;;;;;4949830;28;20593;-91
2023/07/22 08:46:38;;;;;;;2.47;1.83;;;;;;;;;;4957819;28;20433;-92
2023/07/22 08:49:04;;;;;;;4.87;2.07;;;;;;;;;;4955450;28;20430;-92
2023/07/22 08:51:32;;;;;;;3.30;1.57;;;;;;;;;;4948682;28;20438;-93
2023/07/22 08:53:58;;;;;;;3.20;1.70;;;;;;;;;;4950396;28;20529;-93
2023/07/22 08:56:27;;;;;;;2.50;1.53;;;;;;;;;;4956614;28;20445;-93
2023/07/22 08:58:53;;;;;;;5.70;1.80;;;;;;;;;;4965369;28;20442;-93
2023/07/22 09:01:19;;;;;;;2.47;1.50;;;;;;;;;;4957199;28;20445;-92
2023/07/22 09:03:45;;;;;;;2.37;1.50;;;;;;;;;;4958419;28;20488;-94
2023/07/22 09:06:11;;;;;;;2.47;1.50;;;;;;;;;;4959926;28;20466;-93
2023/07/22 09:08:38;;;;;;;2.20;1.60;;;;;;;;;;4950567;28;20458;-93
2023/07/22 09:11:04;;;;;;;2.77;1.70;;;;;;;;;;4950546;28;20493;-93
2023/07/22 09:13:30;;;;;;;2.20;1.50;;;;;;;;;;4951652;28;20418;-94
2023/07/22 09:15:58;;;;;;;3.30;1.97;;;;;;;;;;4951958;28;20444;-93
2023/07/22 09:18:25;;;;;;;2.67;2.00;;;;;;;;;;4979972;28;20509;-95
2023/07/22 09:20:52;;;;;;;3.53;2.00;;;;;;;;;;4950642;28;20445;-93
2023/07/22 09:23:17;;;;;;;3.27;1.97;;;;;;;;;;4951050;28;20474;-91
2023/07/22 09:25:44;;;;;;;2.40;1.53;;;;;;;;;;4950078;28;20422;-92
2023/07/22 09:28:10;;;;;;;3.10;1.77;;;;;;;;;;4948301;28;20441;-91
2023/07/22 09:30:38;;;;;;;2.30;1.47;;;;;;;;;;4944050;28;20445;-91
2023/07/22 09:33:04;;;;;;;2.83;1.97;;;;;;;;;;4959442;28;20460;-92
2023/07/22 09:35:31;;;;;;;2.70;1.70;;;;;;;;;;4952606;28;20532;-93
2023/07/22 09:37:57;;;;;;;2.43;1.40;;;;;;;;;;4976122;28;21017;-94
2023/07/22 09:40:23;;;;;;;3.03;1.63;;;;;;;;;;4957702;28;20716;-92
2023/07/22 09:42:53;;;;;;;3.23;1.80;;;;;;;;;;4954992;28;20426;-91
2023/07/22 09:45:20;;;;;;;5.37;2.20;;;;;;;;;;4950155;28;20438;-92
2023/07/22 09:47:47;;;;;;;2.80;1.40;;;;;;;;;;4948232;28;20449;-92
2023/07/22 09:50:14;;;;;;;3.53;1.80;;;;;;;;;;4954058;28;20710;-93
2023/07/22 09:52:45;;;;;;;4.10;1.97;;;;;;;;;;4953332;28;20414;-93
2023/07/22 09:55:12;;;;;;;2.03;1.53;;;;;;;;;;4952421;28;20426;-92
2023/07/22 09:57:38;;;;;;;2.70;1.93;;;;;;;;;;4948004;28;20416;-93
2023/07/22 10:00:08;;;;;;;2.30;1.60;;;;;;;;;;4948412;28;20441;-93
2023/07/22 10:02:35;;;;;;;2.43;1.40;;;;;;;;;;4948791;28;20434;-91
2023/07/22 10:05:01;;;;;;;2.72;1.70;;;;;;;;;;4950544;28;20949;-93
2023/07/22 10:07:27;;;;;;;3.50;1.87;;;;;;;;;;4949594;28;20182;-91
2023/07/22 10:09:53;;;;;;;2.40;1.67;;;;;;;;;;4952618;28;20421;-93
2023/07/22 10:12:21;;;;;;;1.93;1.23;;;;;;;;;;4949361;28;20410;-91
2023/07/22 10:14:47;;;;;;;3.03;1.50;;;;;;;;;;4949346;28;20817;-92
2023/07/22 10:17:13;;;;;;;2.40;1.60;;;;;;;;;;4907297;29;20492;-94
2023/07/22 10:19:39;;;;;;;4.27;1.60;;;;;;;;;;4912465;29;20424;-92
2023/07/22 10:22:07;;;;;;;2.50;1.70;;;;;;;;;;4914673;29;20444;-88
2023/07/22 10:24:33;;;;;;;2.73;1.70;;;;;;;;;;4912893;29;20551;-90
2023/07/22 10:26:59;;;;;;;2.87;1.70;;;;;;;;;;4888031;29;20437;-90
2023/07/22 10:29:28;;;;;;;3.10;2.03;;;;;;;;;;4883241;29;20509;-90
2023/07/22 10:31:54;;;;;;;2.40;1.60;;;;;;;;;;4885715;29;20441;-90
2023/07/22 10:34:21;;;;;;;3.00;1.70;;;;;;;;;;4901167;29;20452;-90
2023/07/22 10:36:48;;;;;;;3.67;1.63;;;;;;;;;;4885481;29;20442;-92
2023/07/22 10:39:18;;;;;;;2.40;1.60;;;;;;;;;;4904249;29;20402;-91
2023/07/22 10:41:47;;;;;;;3.00;1.27;;;;;;;;;;4889405;29;20429;-92
2023/07/22 10:44:13;;;;;;;2.80;1.90;;;;;;;;;;4892048;29;20472;-92
2023/07/22 10:46:43;;;;;;;2.60;1.87;;;;;;;;;;4895456;29;20440;-91
2023/07/22 10:49:12;;;;;;;3.20;1.70;;;;;;;;;;4943743;28;20414;-93
2023/07/22 10:51:38;;;;;;;2.97;1.77;;;;;;;;;;4963208;28;20429;-92
2023/07/22 10:54:08;;;;;;;4.60;2.27;;;;;;;;;;4943519;28;20443;-93
2023/07/22 10:56:34;;;;;;;2.90;1.87;;;;;;;;;;4950880;28;20926;-91
2023/07/22 10:59:00;;;;;;;2.93;1.90;;;;;;;;;;4947986;28;20574;-95
2023/07/22 11:01:29;;;;;;;5.30;1.97;;;;;;;;;;4952335;28;20434;-91
2023/07/22 11:04:05;;;;;;;3.03;1.77;;;;;;;;;;4966461;28;20505;-91
2023/07/22 11:06:31;;;;;;;2.40;1.50;;;;;;;;;;4963660;28;20421;-91
2023/07/22 11:08:57;;;;;;;2.80;1.83;;;;;;;;;;4949317;28;20493;-90
2023/07/22 11:11:39;;;;;;;2.63;1.60;;;;;;;;;;4941567;28;20410;-90
2023/07/22 11:14:18;;;;;;;3.53;2.00;;;;;;;;;;4947132;28;20442;-90
2023/07/22 11:16:45;;;;;;;4.73;1.97;;;;;;;;;;4982077;28;20606;-91
2023/07/22 11:19:11;;;;;;;3.33;1.90;;;;;;;;;;4941756;28;20438;-90
2023/07/22 11:21:37;;;;;;;2.50;1.70;;;;;;;;;;4949705;28;20430;-91
2023/07/22 11:24:07;;;;;;;2.60;1.47;;;;;;;;;;4947130;28;20469;-91
2023/07/22 11:26:33;;;;;;;4.80;1.80;;;;;;;;;;4946334;28;21030;-92
2023/07/22 11:29:03;;;;;;;3.00;2.00;;;;;;;;;;4950415;28;20972;-90
2023/07/22 11:31:42;;;;;;;3.07;1.73;;;;;;;;;;4947067;28;20426;-90
2023/07/22 11:34:08;;;;;;;2.13;1.53;;;;;;;;;;4950071;28;20511;-90
2023/07/22 11:36:35;;;;;;;2.73;1.90;;;;;;;;;;4961032;28;20477;-91
2023/07/22 11:39:12;;;;;;;3.30;2.33;;;;;;;;;;4965521;28;20934;-90
2023/07/22 11:41:38;;;;;;;2.90;1.80;;;;;;;;;;4947388;28;20440;-90
2023/07/22 11:44:08;;;;;;;2.40;1.60;;;;;;;;;;4962260;28;20469;-91
2023/07/22 11:46:34;;;;;;;2.77;1.77;;;;;;;;;;4950726;28;20411;-91
2023/07/22 11:49:00;;;;;;;2.87;2.03;;;;;;;;;;4965023;28;20513;-90
2023/07/22 11:51:26;;;;;;;2.80;1.90;;;;;;;;;;4925753;29;20432;-89
2023/07/22 11:53:53;;;;;;;3.10;2.43;;;;;;;;;;4924079;28;20424;-90
2023/07/22 11:56:29;;;;;;;2.40;1.70;;;;;;;;;;4924989;29;20439;-90
2023/07/22 11:58:55;;;;;;;2.73;1.83;;;;;;;;;;4911224;29;20408;-90
2023/07/22 12:01:21;;;;;;;2.40;1.73;;;;;;;;;;4930188;29;20448;-90
2023/07/22 12:03:47;;;;;;;2.47;1.90;;;;;;;;;;4925101;29;20882;-92
2023/07/22 12:06:13;;;;;;;3.67;1.60;;;;;;;;;;4921043;29;20481;-91
2023/07/22 12:08:49;;;;;;;2.77;2.00;;;;;;;;;;4923573;29;20420;-91
2023/07/22 12:11:18;;;;;;;2.87;2.10;;;;;;;;;;4937109;29;20436;-90
2023/07/22 12:13:46;;;;;;;3.27;2.40;;;;;;;;;;4927408;29;20424;-90
2023/07/22 12:16:12;;;;;;;4.00;1.67;;;;;;;;;;4924259;29;20439;-91
2023/07/22 12:18:42;;;;;;;2.53;1.60;;;;;;;;;;4907468;29;20476;-91
2023/07/22 12:21:08;;;;;;;3.70;2.00;;;;;;;;;;4910531;29;20456;-89
2023/07/22 12:23:34;;;;;;;2.90;1.93;;;;;;;;;;4946400;28;20473;-90
2023/07/22 12:26:00;;;;;;;4.30;2.40;;;;;;;;;;4938908;29;20458;-90
2023/07/22 12:28:26;;;;;;;2.97;2.47;;;;;;;;;;4949759;28;20438;-89
2023/07/22 12:30:52;;;;;;;2.40;1.80;;;;;;;;;;4963349;28;20414;-90
2023/07/22 12:33:18;;;;;;;2.53;1.77;;;;;;;;;;4949261;28;20426;-90
2023/07/22 12:35:44;;;;;;;4.33;2.60;;;;;;;;;;4940510;29;20427;-90
2023/07/22 12:38:10;;;;;;;2.57;1.87;;;;;;;;;;4950390;28;20485;-91
2023/07/22 12:40:36;;;;;;;2.87;1.73;;;;;;;;;;4946443;29;20422;-92
2023/07/22 12:43:02;;;;;;;2.70;1.80;;;;;;;;;;4943759;28;20465;-91
2023/07/22 12:45:29;;;;;;;2.17;1.73;;;;;;;;;;4948346;28;20553;-91
2023/07/22 12:47:55;;;;;;;3.57;2.37;;;;;;;;;;4966013;28;20460;-92
2023/07/22 12:50:22;;;;;;;2.70;1.80;;;;;;;;;;4952088;28;20418;-91
2023/07/22 12:52:49;;;;;;;2.90;1.70;;;;;;;;;;4948287;28;20480;-91
2023/07/22 12:55:15;;;;;;;3.73;2.40;;;;;;;;;;4953431;28;20477;-92
2023/07/22 12:57:41;;;;;;;3.80;2.30;;;;;;;;;;4948376;28;20483;-92
2023/07/22 13:00:10;;;;;;;2.90;1.70;;;;;;;;;;4950134;28;20412;-91
2023/07/22 13:02:36;;;;;;;3.00;2.20;;;;;;;;;;4950165;28;20412;-92
2023/07/22 13:05:02;;;;;;;2.87;1.83;;;;;;;;;;4950065;28;20462;-91
2023/07/22 13:07:28;;;;;;;2.70;2.07;;;;;;;;;;4950460;28;20436;-93
2023/07/22 13:09:56;;;;;;;2.73;1.97;;;;;;;;;;4950338;28;20456;-91
2023/07/22 13:12:22;;;;;;;3.40;2.20;;;;;;;;;;4953931;28;20494;-91
2023/07/22 13:14:48;;;;;;;3.10;2.10;;;;;;;;;;4950962;28;20435;-92
2023/07/22 13:17:14;;;;;;;3.40;2.10;;;;;;;;;;4944993;29;20519;-92
2023/07/22 13:19:40;;;;;;;3.53;2.30;;;;;;;;;;4931624;28;20437;-91
2023/07/22 13:22:06;;;;;;;4.57;2.50;;;;;;;;;;4938361;28;20922;-91
2023/07/22 13:24:32;;;;;;;2.90;2.43;;;;;;;;;;4950777;28;20541;-91
2023/07/22 13:26:58;;;;;;;3.40;2.50;;;;;;;;;;4947380;28;20926;-90
2023/07/22 13:29:24;;;;;;;2.63;1.90;;;;;;;;;;4948948;28;20452;-91
2023/07/22 13:31:50;;;;;;;3.40;2.13;;;;;;;;;;4967029;28;20437;-91
2023/07/22 13:34:16;;;;;;;3.20;2.40;;;;;;;;;;4948481;28;20422;-91
2023/07/22 13:36:42;;;;;;;4.10;2.87;;;;;;;;;;4948339;28;20417;-91
2023/07/22 13:39:08;;;;;;;4.20;2.43;;;;;;;;;;4946303;28;20469;-90
2023/07/22 13:41:34;;;;;;;5.40;2.33;;;;;;;;;;4945734;28;20417;-92
2023/07/22 13:44:00;;;;;;;3.23;2.20;;;;;;;;;;4944395;28;20557;-91
2023/07/22 13:46:27;;;;;;;3.67;2.50;;;;;;;;;;4963671;28;20675;-92
2023/07/22 13:48:53;;;;;;;3.43;2.37;;;;;;;;;;4951153;28;20426;-92
2023/07/22 13:51:18;;;;;;;2.97;1.90;;;;;;;;;;4946403;28;20450;-91
2023/07/22 13:53:45;;;;;;;2.80;2.17;;;;;;;;;;4965779;28;20432;-92
2023/07/22 13:56:10;;;;;;;3.43;2.23;;;;;;;;;;4949885;28;20441;-90
2023/07/22 13:58:37;;;;;;;3.20;2.27;;;;;;;;;;4949695;28;20414;-90
2023/07/22 14:01:03;;;;;;;3.83;2.23;;;;;;;;;;4950231;28;20430;-91
2023/07/22 14:03:29;;;;;;;2.93;2.60;;;;;;;;;;4949088;28;20469;-91
2023/07/22 14:05:55;;;;;;;4.80;2.87;;;;;;;;;;4951194;28;20422;-88
2023/07/22 14:08:21;;;;;;;4.70;2.30;;;;;;;;;;4950230;28;20444;-92
2023/07/22 14:10:47;;;;;;;2.90;2.40;;;;;;;;;;4948439;29;20506;-91
2023/07/22 14:13:13;;;;;;;4.30;3.13;;;;;;;;;;4933435;28;20443;-92
2023/07/22 14:15:39;;;;;;;6.00;2.47;;;;;;;;;;4951862;28;20453;-92
2023/07/22 14:18:05;;;;;;;4.47;3.13;;;;;;;;;;4950429;28;20933;-89
2023/07/22 14:20:31;;;;;;;4.17;2.17;;;;;;;;;;4951472;28;20430;-93
2023/07/22 14:22:57;;;;;;;6.23;2.40;;;;;;;;;;4965190;28;20450;-92
2023/07/22 14:25:23;;;;;;;3.50;2.33;;;;;;;;;;4953125;28;20950;-92
2023/07/22 14:27:50;;;;;;;3.17;2.37;;;;;;;;;;4947198;29;20457;-92
2023/07/22 14:30:16;;;;;;;2.77;1.97;;;;;;;;;;4940881;29;20438;-92
2023/07/22 14:32:42;;;;;;;3.17;1.93;;;;;;;;;;4938732;28;20422;-93
2023/07/22 14:35:08;;;;;;;2.93;2.20;;;;;;;;;;4982806;28;20398;-93
2023/07/22 14:37:35;;;;;;;4.50;2.80;;;;;;;;;;4965292;28;20453;-92
2023/07/22 14:40:01;;;;;;;4.70;2.80;;;;;;;;;;4950522;28;20442;-94